createdAt,value
2023-04-15T00:00:00.346Z,6.10
2023-04-15T00:02:46.226Z,6.10
2023-04-15T00:05:33.265Z,6.10
2023-04-15T00:08:19.582Z,6.10
2023-04-15T00:11:06.065Z,6.10
2023-04-15T00:13:53.010Z,6.10
2023-04-15T00:16:39.366Z,6.00
2023-04-15T00:19:25.874Z,6.00
2023-04-15T00:22:13.260Z,6.00
2023-04-15T00:24:59.441Z,6.00
2023-04-15T00:27:45.297Z,6.00
2023-04-15T00:30:36.477Z,6.00
2023-04-15T00:33:22.758Z,6.00
2023-04-15T00:36:09.939Z,6.00
2023-04-15T00:38:57.905Z,6.10
2023-04-15T00:41:45.637Z,6.20
2023-04-15T00:44:34.671Z,6.10
2023-04-15T00:47:24.772Z,6.10
2023-04-15T00:50:12.600Z,6.00
2023-04-15T00:52:58.704Z,6.00
2023-04-15T00:55:45.395Z,6.00
2023-04-15T00:58:31.763Z,6.00
2023-04-15T01:01:21.956Z,6.00
2023-04-15T01:04:10.192Z,6.00
2023-04-15T01:06:56.830Z,6.00
2023-04-15T01:09:43.091Z,6.00
2023-04-15T01:12:29.907Z,6.10
2023-04-15T01:15:16.226Z,6.10
2023-04-15T01:18:03.387Z,6.10
2023-04-15T01:20:49.730Z,6.10
2023-04-15T01:23:39.846Z,6.10
2023-04-15T01:26:26.408Z,6.10
2023-04-15T01:29:13.165Z,6.10
2023-04-15T01:31:59.421Z,6.10
2023-04-15T01:35:06.382Z,6.10
2023-04-15T01:38:09.477Z,6.10
2023-04-15T01:40:57.486Z,6.00
2023-04-15T01:43:45.732Z,6.00
2023-04-15T01:46:33.481Z,5.90
2023-04-15T01:49:20.935Z,5.90
2023-04-15T01:52:09.104Z,5.90
2023-04-15T01:54:57.163Z,5.90
2023-04-15T01:57:44.633Z,5.90
2023-04-15T02:00:32.636Z,5.90
2023-04-15T02:03:20.518Z,5.90
2023-04-15T02:06:07.995Z,5.90
2023-04-15T02:08:55.780Z,5.90
2023-04-15T02:11:43.286Z,5.90
2023-04-15T02:14:31.684Z,5.90
2023-04-15T02:17:19.193Z,5.90
2023-04-15T02:20:08.624Z,5.90
2023-04-15T02:22:56.787Z,5.90
2023-04-15T02:25:53.801Z,5.90
2023-04-15T02:28:42.346Z,5.90
2023-04-15T02:31:29.910Z,5.90
2023-04-15T02:34:17.688Z,5.90
2023-04-15T02:37:05.956Z,6.00
2023-04-15T02:39:53.633Z,6.00
2023-04-15T02:42:42.682Z,5.90
2023-04-15T02:45:33.494Z,6.00
2023-04-15T02:48:23.013Z,5.90
2023-04-15T02:51:14.267Z,5.90
2023-04-15T02:54:01.714Z,5.90
2023-04-15T02:56:50.282Z,5.90
2023-04-15T02:59:39.371Z,5.90
2023-04-15T03:02:27.004Z,5.90
2023-04-15T03:05:14.881Z,6.00
2023-04-15T03:08:11.439Z,6.00
2023-04-15T03:11:00.891Z,6.00
2023-04-15T03:13:48.629Z,6.10
2023-04-15T03:16:51.991Z,6.10
2023-04-15T03:19:40.303Z,6.20
2023-04-15T03:22:29.383Z,6.30
2023-04-15T03:25:17.430Z,6.30
2023-04-15T03:28:05.423Z,6.40
2023-04-15T03:30:54.089Z,6.40
2023-04-15T03:33:41.482Z,6.50
2023-04-15T03:36:33.306Z,6.50
2023-04-15T03:39:20.915Z,6.60
2023-04-15T03:42:08.216Z,6.60
2023-04-15T03:44:55.930Z,6.60
2023-04-15T03:47:43.440Z,6.60
2023-04-15T03:50:31.144Z,6.50
2023-04-15T03:53:18.743Z,6.50
2023-04-15T03:56:06.448Z,6.50
2023-04-15T03:58:53.940Z,6.50
2023-04-15T04:01:41.562Z,6.50
2023-04-15T04:04:29.315Z,6.60
2023-04-15T04:07:17.784Z,6.50
2023-04-15T04:10:05.853Z,6.50
2023-04-15T04:12:53.615Z,6.40
2023-04-15T04:15:40.921Z,6.30
2023-04-15T04:18:28.473Z,6.20
2023-04-15T04:21:16.659Z,6.10
2023-04-15T04:24:04.470Z,6.00
2023-04-15T04:26:52.219Z,5.90
2023-04-15T04:29:39.569Z,5.90
2023-04-15T04:32:27.579Z,5.90
2023-04-15T04:35:15.753Z,5.80
2023-04-15T04:38:04.086Z,5.80
2023-04-15T04:40:51.302Z,5.70
2023-04-15T04:43:39.006Z,5.70
2023-04-15T04:46:26.641Z,5.70
2023-04-15T04:49:14.180Z,5.70
2023-04-15T04:52:02.626Z,5.70
2023-04-15T04:54:49.842Z,5.70
2023-04-15T04:57:39.441Z,5.70
2023-04-15T05:00:26.863Z,5.70
2023-04-15T05:03:14.949Z,5.70
2023-04-15T05:06:07.350Z,5.70
2023-04-15T05:08:54.601Z,5.80
2023-04-15T05:11:42.257Z,5.70
2023-04-15T05:14:33.427Z,5.70
2023-04-15T05:17:20.716Z,5.70
2023-04-15T05:20:09.693Z,5.70
2023-04-15T05:22:57.221Z,5.70
2023-04-15T05:25:45.216Z,5.70
2023-04-15T05:28:32.749Z,5.70
2023-04-15T05:31:20.539Z,5.70
2023-04-15T05:34:10.530Z,5.70
2023-04-15T05:37:00.955Z,5.70
2023-04-15T05:39:48.834Z,5.70
2023-04-15T05:42:36.494Z,5.80
2023-04-15T05:45:23.918Z,5.80
2023-04-15T05:48:12.129Z,5.80
2023-04-15T05:51:00.060Z,5.80
2023-04-15T05:53:47.748Z,5.80
2023-04-15T05:56:35.471Z,5.90
2023-04-15T05:59:23.044Z,6.00
2023-04-15T06:02:10.654Z,6.00
2023-04-15T06:05:01.399Z,6.00
2023-04-15T06:07:49.800Z,6.20
2023-04-15T06:10:38.116Z,6.20
2023-04-15T06:13:26.333Z,6.30
2023-04-15T06:16:13.835Z,6.30
2023-04-15T06:19:01.458Z,6.30
2023-04-15T06:21:49.793Z,6.40
2023-04-15T06:24:37.457Z,6.40
2023-04-15T06:27:25.025Z,6.40
2023-04-15T06:30:12.786Z,6.40
2023-04-15T06:33:00.220Z,6.50
2023-04-15T06:35:49.619Z,6.50
2023-04-15T06:38:37.148Z,6.60
2023-04-15T06:41:25.017Z,6.60
2023-04-15T06:44:12.614Z,6.70
2023-04-15T06:46:59.668Z,6.80
2023-04-15T06:49:47.406Z,6.80
2023-04-15T06:52:36.134Z,6.90
2023-04-15T06:55:23.502Z,6.90
2023-04-15T06:58:11.113Z,7.00
2023-04-15T07:00:59.121Z,7.10
2023-04-15T07:03:47.010Z,7.20
2023-04-15T07:06:35.627Z,7.30
2023-04-15T07:09:24.810Z,7.50
2023-04-15T07:12:12.419Z,7.70
2023-04-15T07:15:00.131Z,7.90
2023-04-15T07:17:47.806Z,8.10
2023-04-15T07:20:35.896Z,8.30
2023-04-15T07:23:23.447Z,8.60
2023-04-15T07:26:11.203Z,8.50
2023-04-15T07:29:01.068Z,8.70
2023-04-15T07:31:49.236Z,8.90
2023-04-15T07:34:37.561Z,9.00
2023-04-15T07:37:25.277Z,9.10
2023-04-15T07:40:14.554Z,9.30
2023-04-15T07:43:02.232Z,9.40
2023-04-15T07:45:49.731Z,9.60
2023-04-15T07:48:37.689Z,9.90
2023-04-15T07:51:25.685Z,10.00
2023-04-15T07:54:13.457Z,10.20
2023-04-15T07:57:01.496Z,10.40
2023-04-15T07:59:49.027Z,10.80
2023-04-15T08:02:38.159Z,11.20
2023-04-15T08:05:27.041Z,11.50
2023-04-15T08:08:14.780Z,11.60
2023-04-15T08:11:02.508Z,11.80
2023-04-15T08:13:49.950Z,11.90
2023-04-15T08:16:37.566Z,12.10
2023-04-15T08:19:25.308Z,11.90
2023-04-15T08:22:18.020Z,11.70
2023-04-15T08:25:06.248Z,11.40
2023-04-15T08:27:57.597Z,11.20
2023-04-15T08:30:44.893Z,11.20
2023-04-15T08:33:32.513Z,11.20
2023-04-15T08:36:20.315Z,11.20
2023-04-15T08:39:07.801Z,11.20
2023-04-15T08:42:02.681Z,11.30
2023-04-15T08:44:51.161Z,11.40
2023-04-15T08:47:41.855Z,11.60
2023-04-15T08:50:31.583Z,11.60
2023-04-15T08:53:19.423Z,11.60
2023-04-15T08:56:10.330Z,11.60
2023-04-15T08:58:58.193Z,11.60
2023-04-15T09:01:46.501Z,11.50
2023-04-15T09:04:34.142Z,11.50
2023-04-15T09:07:21.797Z,11.60
2023-04-15T09:10:10.622Z,11.70
2023-04-15T09:12:58.827Z,11.80
2023-04-15T09:15:46.324Z,11.90
2023-04-15T09:18:37.285Z,12.10
2023-04-15T09:21:24.996Z,12.20
2023-04-15T09:24:12.138Z,12.30
2023-04-15T09:27:00.597Z,12.30
2023-04-15T09:29:50.646Z,12.30
2023-04-15T09:32:52.181Z,12.30
2023-04-15T09:35:39.639Z,12.30
2023-04-15T09:38:27.542Z,12.20
2023-04-15T09:41:20.720Z,12.20
2023-04-15T09:44:22.041Z,12.20
2023-04-15T09:47:09.712Z,12.10
2023-04-15T09:49:58.792Z,12.10
2023-04-15T09:52:47.717Z,12.00
2023-04-15T09:55:35.492Z,12.00
2023-04-15T09:58:30.376Z,12.00
2023-04-15T10:01:18.194Z,11.80
2023-04-15T10:04:06.848Z,11.80
2023-04-15T10:06:54.903Z,11.60
2023-04-15T10:09:45.789Z,11.40
2023-04-15T10:12:33.943Z,11.30
2023-04-15T10:15:22.109Z,11.10
2023-04-15T10:18:11.456Z,11.00
2023-04-15T10:21:01.256Z,11.10
2023-04-15T10:23:49.349Z,11.20
2023-04-15T10:26:37.030Z,11.30
2023-04-15T10:29:28.551Z,11.50
2023-04-15T10:32:19.161Z,11.60
2023-04-15T10:35:07.903Z,11.50
2023-04-15T10:37:55.090Z,11.60
2023-04-15T10:40:45.350Z,11.50
2023-04-15T10:43:32.974Z,11.60
2023-04-15T10:46:41.529Z,11.70
2023-04-15T10:49:29.653Z,11.80
2023-04-15T10:52:22.192Z,11.80
2023-04-15T10:55:17.910Z,11.80
2023-04-15T10:58:05.938Z,11.80
2023-04-15T11:00:54.095Z,11.80
2023-04-15T11:03:43.736Z,11.70
2023-04-15T11:06:45.524Z,11.70
2023-04-15T11:09:34.509Z,11.80
2023-04-15T11:12:22.191Z,11.80
2023-04-15T11:15:35.987Z,11.90
2023-04-15T11:18:25.607Z,11.90
2023-04-15T11:21:13.020Z,11.90
2023-04-15T11:24:02.131Z,11.80
2023-04-15T11:26:49.834Z,11.70
2023-04-15T11:29:39.529Z,11.60
2023-04-15T11:32:27.113Z,11.60
2023-04-15T11:35:14.603Z,11.60
2023-04-15T11:38:08.672Z,11.40
2023-04-15T11:40:56.289Z,11.30
2023-04-15T11:43:43.687Z,11.20
2023-04-15T11:46:31.985Z,11.30
2023-04-15T11:49:30.894Z,11.20
2023-04-15T11:52:17.481Z,11.20
2023-04-15T11:55:04.478Z,11.20
2023-04-15T11:58:10.991Z,11.30
2023-04-15T12:01:01.569Z,11.30
2023-04-15T12:03:49.626Z,11.20
2023-04-15T12:06:37.346Z,11.20
2023-04-15T12:09:23.548Z,11.20
2023-04-15T12:12:12.108Z,11.20
2023-04-15T12:14:59.447Z,11.20
2023-04-15T12:17:51.708Z,11.30
2023-04-15T12:20:45.428Z,11.30
2023-04-15T12:23:31.722Z,11.40
2023-04-15T12:26:19.180Z,11.50
2023-04-15T12:29:08.166Z,11.50
2023-04-15T12:31:57.908Z,11.50
2023-04-15T12:34:52.479Z,11.40
2023-04-15T12:37:38.467Z,11.40
2023-04-15T12:40:24.534Z,11.30
2023-04-15T12:43:11.305Z,11.20
2023-04-15T12:45:57.702Z,11.10
2023-04-15T12:48:44.323Z,11.00
2023-04-15T12:51:31.722Z,10.80
2023-04-15T12:54:18.451Z,10.70
2023-04-15T12:57:06.764Z,10.70
2023-04-15T12:59:53.598Z,10.60
2023-04-15T13:02:39.804Z,10.60
2023-04-15T13:05:26.192Z,10.50
2023-04-15T13:08:12.603Z,10.50
2023-04-15T13:10:58.763Z,10.50
2023-04-15T13:13:45.031Z,10.40
2023-04-15T13:16:32.087Z,10.40
2023-04-15T13:19:18.177Z,10.50
2023-04-15T13:22:04.240Z,10.50
2023-04-15T13:24:51.452Z,10.50
2023-04-15T13:27:38.134Z,10.50
2023-04-15T13:30:24.351Z,10.60
2023-04-15T13:33:10.743Z,10.70
2023-04-15T13:35:57.015Z,10.70
2023-04-15T13:38:43.304Z,10.70
2023-04-15T13:41:29.929Z,10.70
2023-04-15T13:44:15.817Z,10.70
2023-04-15T13:47:01.821Z,10.70
2023-04-15T13:49:47.839Z,10.70
2023-04-15T13:52:34.117Z,10.60
2023-04-15T13:55:22.263Z,10.60
2023-04-15T13:58:10.025Z,10.60
2023-04-15T14:00:56.253Z,10.50
2023-04-15T14:03:42.416Z,10.50
2023-04-15T14:06:31.592Z,10.40
2023-04-15T14:09:17.809Z,10.40
2023-04-15T14:12:04.840Z,10.40
2023-04-15T14:14:50.996Z,10.50
2023-04-15T14:17:37.062Z,10.60
2023-04-15T14:20:23.149Z,10.70
2023-04-15T14:23:09.035Z,10.80
2023-04-15T14:25:55.158Z,10.90
2023-04-15T14:28:41.137Z,11.00
2023-04-15T14:31:27.058Z,10.90
2023-04-15T14:34:13.560Z,10.70
2023-04-15T14:36:59.647Z,10.70
2023-04-15T14:39:45.657Z,10.80
2023-04-15T14:42:31.875Z,10.80
2023-04-15T14:45:17.915Z,10.80
2023-04-15T14:48:04.509Z,10.90
2023-04-15T14:50:50.952Z,10.90
2023-04-15T14:53:37.230Z,10.80
2023-04-15T14:56:23.194Z,10.80
2023-04-15T14:59:09.075Z,10.70
2023-04-15T15:01:55.098Z,10.60
2023-04-15T15:04:41.819Z,10.50
2023-04-15T15:07:27.798Z,10.30
2023-04-15T15:10:13.808Z,10.10
2023-04-15T15:13:00.001Z,10.00
2023-04-15T15:15:46.357Z,9.90
2023-04-15T15:18:32.498Z,9.90
2023-04-15T15:21:18.686Z,9.80
2023-04-15T15:24:05.509Z,9.70
2023-04-15T15:26:51.934Z,9.70
2023-04-15T15:29:38.353Z,9.70
2023-04-15T15:32:24.470Z,9.60
2023-04-15T15:35:11.166Z,9.50
2023-04-15T15:37:57.112Z,9.50
2023-04-15T15:40:43.021Z,9.40
2023-04-15T15:43:29.032Z,9.40
2023-04-15T15:46:15.805Z,9.40
2023-04-15T15:49:03.677Z,9.30
2023-04-15T15:51:50.008Z,9.30
2023-04-15T15:54:37.654Z,9.30
2023-04-15T15:57:23.998Z,9.20
2023-04-15T16:00:12.873Z,9.10
2023-04-15T16:05:48.553Z,9.10
2023-04-15T16:08:34.995Z,9.10
2023-04-15T16:11:21.271Z,9.00
2023-04-15T16:14:07.218Z,9.10
2023-04-15T16:16:53.594Z,9.10
2023-04-15T16:19:39.741Z,9.00
2023-04-15T16:22:26.583Z,8.90
2023-04-15T16:25:13.179Z,8.90
2023-04-15T16:28:05.601Z,8.90
2023-04-15T16:30:57.932Z,8.90
2023-04-15T16:33:44.008Z,8.90
2023-04-15T16:36:30.054Z,8.90
2023-04-15T16:39:16.220Z,8.80
2023-04-15T16:42:03.315Z,8.80
2023-04-15T16:44:49.400Z,8.80
2023-04-15T16:47:36.095Z,8.70
2023-04-15T16:50:22.162Z,8.60
2023-04-15T16:53:08.292Z,8.60
2023-04-15T16:55:54.441Z,8.50
2023-04-15T16:58:40.772Z,8.50
2023-04-15T17:01:26.977Z,8.50
2023-04-15T17:04:13.100Z,8.50
2023-04-15T17:06:59.363Z,8.40
2023-04-15T17:09:46.120Z,8.20
2023-04-15T17:12:32.535Z,8.00
2023-04-15T17:15:19.313Z,7.90
2023-04-15T17:18:08.673Z,7.80
2023-04-15T17:20:58.188Z,7.70
2023-04-15T17:23:44.776Z,7.70
2023-04-15T17:26:31.687Z,7.50
2023-04-15T17:29:17.897Z,7.50
2023-04-15T17:32:07.887Z,7.40
2023-04-15T17:35:14.024Z,7.50
2023-04-15T17:38:20.071Z,7.50
2023-04-15T17:41:26.300Z,7.50
2023-04-15T17:44:12.491Z,7.40
2023-04-15T17:47:18.446Z,7.40
2023-04-15T17:50:24.610Z,7.40
2023-04-15T17:53:30.772Z,7.50
2023-04-15T17:56:36.899Z,7.50
2023-04-15T17:59:44.397Z,7.40
2023-04-15T18:02:50.719Z,7.40
2023-04-15T18:05:56.668Z,7.20
2023-04-15T18:09:03.510Z,7.20
2023-04-15T18:12:10.403Z,7.10
2023-04-15T18:15:16.697Z,7.00
2023-04-15T18:18:22.613Z,6.90
2023-04-15T18:21:19.643Z,6.90
2023-04-15T18:24:06.294Z,6.80
2023-04-15T18:26:52.692Z,6.80
2023-04-15T18:29:39.202Z,6.70
2023-04-15T18:32:25.600Z,6.70
2023-04-15T18:35:11.778Z,6.60
2023-04-15T18:37:58.796Z,6.50
2023-04-15T18:40:44.776Z,6.50
2023-04-15T18:43:30.722Z,6.50
2023-04-15T18:46:17.493Z,6.50
2023-04-15T18:49:04.274Z,6.50
2023-04-15T18:51:50.579Z,6.50
2023-04-15T18:54:37.002Z,6.50
2023-04-15T18:57:23.487Z,6.50
2023-04-15T19:00:17.877Z,6.50
2023-04-15T19:03:04.374Z,6.50
2023-04-15T19:05:50.812Z,6.50
2023-04-15T19:08:37.091Z,6.50
2023-04-15T19:11:23.435Z,6.60
2023-04-15T19:14:10.396Z,6.60
2023-04-15T19:16:56.794Z,6.50
2023-04-15T19:19:43.592Z,6.50
2023-04-15T19:22:29.922Z,6.50
2023-04-15T19:25:15.893Z,6.50
2023-04-15T19:28:02.185Z,6.50
2023-04-15T19:30:48.034Z,6.40
2023-04-15T19:33:34.875Z,6.40
2023-04-15T19:36:21.355Z,6.40
2023-04-15T19:39:07.866Z,6.40
2023-04-15T19:41:55.474Z,6.30
2023-04-15T19:44:42.889Z,6.30
2023-04-15T19:47:29.101Z,6.30
2023-04-15T19:50:16.604Z,6.30
2023-04-15T19:53:02.872Z,6.40
2023-04-15T19:55:49.044Z,6.40
2023-04-15T19:58:35.037Z,6.30
2023-04-15T20:01:22.010Z,6.40
2023-04-15T20:04:08.665Z,6.40
2023-04-15T20:06:55.747Z,6.30
2023-04-15T20:09:43.852Z,6.30
2023-04-15T20:12:49.665Z,6.30
2023-04-15T20:15:36.555Z,6.30
2023-04-15T20:18:22.886Z,6.40
2023-04-15T20:21:08.752Z,6.30
2023-04-15T20:23:54.622Z,6.30
2023-04-15T20:26:40.566Z,6.30
2023-04-15T20:29:26.549Z,6.30
2023-04-15T20:32:12.987Z,6.30
2023-04-15T20:34:58.937Z,6.40
2023-04-15T20:37:45.081Z,6.40
2023-04-15T20:40:33.593Z,6.30
2023-04-15T20:43:21.483Z,6.30
2023-04-15T20:46:17.971Z,6.40
2023-04-15T20:49:08.298Z,6.40
2023-04-15T20:51:54.499Z,6.40
2023-04-15T20:54:41.077Z,6.40
2023-04-15T20:57:27.079Z,6.40
2023-04-15T21:00:13.545Z,6.40
2023-04-15T21:02:59.707Z,6.40
2023-04-15T21:05:46.065Z,6.40
2023-04-15T21:08:32.373Z,6.50
2023-04-15T21:11:33.159Z,6.50
2023-04-15T21:14:24.915Z,6.50
2023-04-15T21:17:11.548Z,6.50
2023-04-15T21:19:57.774Z,6.40
2023-04-15T21:22:43.802Z,6.50
2023-04-15T21:25:29.878Z,6.40
2023-04-15T21:28:15.923Z,6.40
2023-04-15T21:31:01.705Z,6.40
2023-04-15T21:33:47.757Z,6.40
2023-04-15T21:36:34.047Z,6.40
2023-04-15T21:39:20.836Z,6.40
2023-04-15T21:42:06.789Z,6.40
2023-04-15T21:44:52.948Z,6.40
2023-04-15T21:48:05.809Z,6.30
2023-04-15T21:50:45.274Z,6.30
2023-04-15T21:53:31.582Z,6.40
2023-04-15T21:56:17.427Z,6.40
2023-04-15T21:59:03.575Z,6.30
2023-04-15T22:01:50.010Z,6.40
2023-04-15T22:04:36.461Z,6.30
2023-04-15T22:07:22.839Z,6.30
2023-04-15T22:10:09.456Z,6.30
2023-04-15T22:12:57.016Z,6.30
2023-04-15T22:15:43.255Z,6.40
2023-04-15T22:18:29.162Z,6.30
2023-04-15T22:21:15.126Z,6.30
2023-04-15T22:24:32.551Z,6.30
2023-04-15T22:27:07.497Z,6.30
2023-04-15T22:29:53.667Z,6.20
2023-04-15T22:32:40.094Z,6.20
2023-04-15T22:35:26.004Z,6.20
2023-04-15T22:38:11.820Z,6.20
2023-04-15T22:40:58.495Z,6.20
2023-04-15T22:43:45.818Z,6.20
2023-04-15T22:46:31.756Z,6.10
2023-04-15T22:49:17.982Z,6.10
2023-04-15T22:52:04.246Z,6.10
2023-04-15T22:54:50.345Z,6.10
2023-04-15T22:57:36.278Z,6.10
2023-04-15T23:00:22.301Z,6.10
2023-04-15T23:03:08.395Z,6.00
2023-04-15T23:05:54.953Z,6.00
2023-04-15T23:08:41.411Z,6.00
2023-04-15T23:11:27.569Z,6.00
2023-04-15T23:14:13.455Z,6.00
2023-04-15T23:16:59.364Z,6.00
2023-04-15T23:19:45.383Z,6.00
2023-04-15T23:22:31.560Z,6.00
2023-04-15T23:25:18.073Z,5.90
2023-04-15T23:28:04.402Z,5.80
2023-04-15T23:30:50.266Z,5.70
2023-04-15T23:33:38.105Z,5.70
2023-04-15T23:36:24.322Z,5.70
2023-04-15T23:39:10.534Z,5.80
2023-04-15T23:41:57.494Z,5.80
2023-04-15T23:44:43.586Z,5.80
2023-04-15T23:47:29.976Z,5.80
2023-04-15T23:50:16.189Z,5.80
2023-04-15T23:53:02.334Z,5.90
2023-04-15T23:55:51.384Z,5.90
2023-04-15T23:58:37.273Z,6.00
